Latest Coastal Weather Observations for Albion Park

IDN60701

Issued at 11:22 am EDT Monday 26 January 2015 (issued every 10 minutes, with the page automatically refreshed every 10 minutes)

About coastal observations | Map of coastal stations | Coastal observations for NSW | Marine services | Other Formats
Station Details ID: 068241 Name: WOLLONGONG AIRPORT Lat: -34.56 Lon: 150.79 Height: 8.0 m
Data from the previous 72 hours. | See also: Recent months at Albion Park
Date/Time
EDT
Temp

°C
Wind Pressure Rain
since 9am
mm
Weather Cloud Vis
km
Sea
Height
m
Swell
Dir
 
Speed
knots
Gust
knots
hPa Trend Height
m
Period
s
Dir
26/11:00am 19.9 S 9 15 1014.6 - 0.0 - Cloudy 10 - - - -
26/10:30am 19.5 S 10 15 1014.6 - 0.0 - Cloudy 10 - - - -
26/10:00am 19.6 S 12 16 1014.6 - 0.0 - Cloudy 10 - - - -
26/09:30am 19.8 S 9 14 1014.4 - 0.0 - Cloudy 10 - - - -
26/09:00am 19.8 S 9 15 1014.2 - 0.0 - Mostly cloudy 10 - - - -
26/08:30am 19.8 SSW 10 15 1013.9 - 0.0 - Partly cloudy 10 - - - -
26/08:00am 19.9 S 9 15 1013.4 - 0.0 - Partly cloudy 10 - - - -
26/07:30am 19.6 S 8 12 1013.3 - 0.0 - Cloudy 10 - - - -
26/07:00am 19.4 SSW 8 14 1012.9 - 0.0 - Partly cloudy 10 - - - -
26/06:30am 19.3 S 7 9 1012.8 - 0.0 - Cloudy 10 - - - -
26/06:00am 19.2 S 5 7 1012.4 - 0.0 - Cloudy 10 - - - -
26/05:30am 19.0 SSW 5 8 1012.2 - 0.0 - Cloudy 10 - - - -
26/05:00am 19.1 S 4 10 1012.0 - 0.0 - Partly cloudy 10 - - - -
26/04:30am 19.2 SSE 5 8 1011.7 - 0.0 - Partly cloudy 10 - - - -
26/04:00am 19.5 SSW 6 11 1011.8 - 0.0 - Cloudy 10 - - - -
26/03:30am 19.5 SSW 3 5 1011.6 - 0.0 - Partly cloudy 10 - - - -
26/03:00am 19.6 S 8 13 1011.3 - 0.0 - Cloudy 10 - - - -
26/02:30am 19.6 S 10 16 1011.1 - 0.0 - Cloudy 10 - - - -
26/02:00am 19.7 S 10 15 1011.1 - 0.0 - Cloudy 10 - - - -
26/01:30am 19.6 S 8 13 1011.0 - 0.0 - Cloudy 10 - - - -
26/01:00am 19.6 S 9 13 1011.0 - 0.0 - Cloudy 10 - - - -
26/12:30am 19.9 S 10 14 1011.0 - 0.0 - Partly cloudy 10 - - - -
 
Date/Time
EDT
Temp

°C
Wind Pressure Rain
since 9am
mm
Weather Cloud Vis
km
Sea
Height
m
Swell
Dir
 
Speed
knots
Gust
knots
hPa Trend Height
m
Period
s
Dir
25/11:30pm 20.2 S 11 15 1011.0 - 0.0 - Partly cloudy 10 - - - -
25/11:00pm 20.6 S 7 11 1010.6 - 0.0 - Partly cloudy 10 - - - -
25/10:56pm 20.5 SSE 7 11 1010.5 - 0.0 - Partly cloudy 10 - - - -
25/10:30pm 20.7 S 9 14 1010.4 - 0.0 - Partly cloudy 10 - - - -
25/10:00pm 21.0 SSE 10 15 1010.1 - 0.0 - Partly cloudy 10 - - - -
25/09:30pm 21.2 SSE 11 17 1009.6 - 0.0 - Partly cloudy 10 - - - -
25/09:05pm 21.7 SSE 13 18 1008.8 - 0.0 - Partly cloudy 10 - - - -
25/09:00pm 21.7 SSE 13 19 1008.7 - 0.0 - Cloudy 10 - - - -
25/08:30pm 22.0 SSE 11 17 1008.2 - 0.0 - Partly cloudy 10 - - - -
25/08:00pm 22.2 S 12 17 1007.4 - 0.0 - Partly cloudy 10 - - - -
25/07:30pm 22.8 S 11 19 1006.6 - 0.0 - Partly cloudy 10 - - - -
25/07:15pm 23.3 SSE 15 25 1006.2 - 0.0 - Partly cloudy 10 - - - -
25/07:00pm 23.7 SSE 12 22 1005.8 - 0.0 - Partly cloudy 10 - - - -
25/06:30pm 25.3 S 17 27 1004.5 - 0.0 - - 10 - - - -
25/06:00pm 26.8 S 23 33 1003.5 - 0.0 - - 10 - - - -
25/05:51pm 27.4 S 22 33 1003.3 - 0.0 - - 10 - - - -
25/05:39pm 28.6 S 16 26 1002.9 - 0.0 - - 10 - - - -
25/05:30pm 33.8 WSW 16 24 1002.8 - 0.0 - - 10 - - - -
25/05:00pm 34.0 W 17 25 1002.2 - 0.0 - - 10 - - - -
25/04:30pm 34.3 WSW 15 22 1001.8 - 0.0 - - 10 - - - -
25/04:00pm 34.5 WSW 16 25 1001.8 - 0.0 - - 10 - - - -
25/03:30pm 34.7 WSW 15 24 1001.8 - 0.0 - - 10 - - - -
25/03:00pm 34.4 W 18 24 1001.5 - 0.0 - Partly cloudy 10 - - - -
25/02:30pm 34.3 WSW 14 26 1001.4 - 0.0 - Partly cloudy 10 - - - -
25/02:23pm 34.4 W 15 26 1001.4 - 0.0 - Partly cloudy 10 - - - -
25/02:00pm 34.0 W 13 17 1001.3 - 0.0 - - 10 - - - -
25/01:30pm 33.9 WSW 13 19 1001.3 - 0.0 - Partly cloudy 10 - - - -
25/01:00pm 33.8 WNW 15 25 1001.5 - 0.0 - - 10 - - - -
25/12:30pm 30.7 NE 11 14 1001.6 - 0.0 - - 10 - - - -
25/12:00pm 30.4 NE 10 12 1001.6 - 0.0 - - 10 - - - -
25/11:30am 29.9 NE 10 12 1001.7 - 0.0 - - 10 - - - -
25/11:00am 29.8 NE 9 12 1001.9 - 0.0 - - 10 - - - -
25/10:30am 29.7 E 7 9 1002.2 - 0.0 - - 10 - - - -
25/10:00am 29.4 ESE 7 9 1002.3 - 0.0 - - 10 - - - -
25/09:30am 29.1 ENE 6 8 1002.2 - 0.0 - - 10 - - - -
25/09:00am 27.4 ENE 5 8 1002.2 - 0.6 - - 10 - - - -
25/08:30am 26.1 E 8 11 1002.2 - 0.6 - - 10 - - - -
25/08:00am 24.6 ESE 7 9 1002.0 - 0.6 - - 10 - - - -
25/07:30am 23.4 WSW 5 7 1001.7 - 0.6 - - 10 - - - -
25/07:00am 21.3 WSW 5 8 1001.6 - 0.6 - - 10 - - - -
25/06:30am 19.8 WSW 2 4 1001.4 - 0.6 - - 10 - - - -
25/06:00am 19.4 WSW 3 4 1001.1 - 0.6 - - 10 - - - -
25/05:30am 19.6 WSW 4 5 1001.1 - 0.6 - - 10 - - - -
25/05:00am 20.3 WSW 2 4 1001.2 - 0.6 - - 10 - - - -
25/04:30am 21.4 WNW 4 5 1001.3 - 0.6 - - 10 - - - -
25/04:00am 21.4 NW 2 6 1001.7 - 0.6 - - 10 - - - -
25/03:30am 21.9 NW 4 6 1001.9 - 0.6 - - 10 - - - -
25/03:00am 22.2 WNW 10 16 1002.4 - 0.6 - - 10 - - - -
25/02:30am 19.8 WNW 4 5 1002.8 - 0.6 - - 10 - - - -
25/02:00am 20.3 W 4 5 1003.2 - 0.6 - - 10 - - - -
25/01:30am 20.8 WNW 6 7 1003.6 - 0.6 - - 10 - - - -
25/01:00am 21.3 CALM 0 0 1004.1 - 0.6 - - 10 - - - -
25/12:30am 21.2 WSW 6 8 1004.3 - 0.6 - Partly cloudy 10 - - - -
25/12:00am 21.5 WSW 3 4 1004.4 - 0.6 Recent precip. Cloudy 10 - - - -
 
Date/Time
EDT
Temp

°C
Wind Pressure Rain
since 9am
mm
Weather Cloud Vis
km
Sea
Height
m
Swell
Dir
 
Speed
knots
Gust
knots
hPa Trend Height
m
Period
s
Dir
24/11:30pm 22.4 SW 7 8 1004.8 - 0.6 - Cloudy 10 - - - -
24/11:00pm 23.0 SW 4 6 1005.3 - 0.4 - Partly cloudy 10 - - - -
24/10:30pm 23.9 SW 3 4 1005.8 - 0.4 - Partly cloudy 8 - - - -
24/10:00pm 23.8 CALM 0 0 1006.1 - 0.0 - Partly cloudy 10 - - - -
24/09:30pm 24.3 CALM 0 0 1006.2 - 0.0 - Partly cloudy 10 - - - -
24/09:00pm 24.6 SW 3 4 1006.0 - 0.0 - Mostly cloudy 10 - - - -
24/08:30pm 24.3 WSW 4 6 1005.5 - 0.0 - Partly cloudy 10 - - - -
24/08:00pm 24.9 NW 4 6 1005.4 - 0.0 - - 10 - - - -
24/07:30pm 25.6 NNE 7 11 1004.9 - 0.0 - - 10 - - - -
24/07:00pm 25.6 NNE 6 10 1004.5 - 0.0 - Partly cloudy 10 - - - -
24/06:30pm 25.9 NE 9 13 1004.5 - 0.0 - - 10 - - - -
24/06:00pm 25.7 NE 9 13 1004.2 - 0.0 - Partly cloudy 10 - - - -
24/05:30pm 25.6 NNE 12 18 1003.9 - 0.0 - - 10 - - - -
24/05:00pm 26.0 NNE 12 19 1003.9 - 0.0 - Partly cloudy 10 - - - -
24/04:30pm 27.1 NE 11 15 1004.4 - 0.0 - Cloudy 10 - - - -
24/04:00pm 27.1 NE 14 18 1004.4 - 0.0 - Partly cloudy 10 - - - -
24/03:30pm 27.5 NE 16 21 1004.5 - 0.0 - - 10 - - - -
24/03:00pm 27.7 NE 14 19 1005.1 - 0.0 - Partly cloudy 10 - - - -
24/02:30pm 27.8 NE 15 20 1004.9 - 0.0 - - 10 - - - -
24/02:00pm 27.7 NE 15 19 1005.6 - 0.0 - - 10 - - - -
24/01:30pm 28.0 NE 13 16 1006.0 - 0.0 - - 10 - - - -
24/01:00pm 28.1 NE 13 15 1006.5 - 0.0 - - 10 - - - -
24/12:30pm 27.7 NE 12 17 1006.9 - 0.0 - - 10 - - - -
24/12:00pm 27.4 NE 10 13 1007.2 - 0.0 - - 10 - - - -
24/11:30am 26.9 ENE 9 11 1007.5 - 0.0 - Partly cloudy 10 - - - -
24/11:25am 26.7 ENE 9 11 1007.5 - 0.0 - Partly cloudy 10 - - - -
24/11:00am 26.8 ENE 7 9 1007.6 - 0.0 - Partly cloudy 10 - - - -
24/10:30am 26.5 NW 3 6 1007.8 - 0.0 - Partly cloudy 10 - - - -
24/10:00am 25.1 NNE 2 4 1008.0 - 0.0 - Cloudy 10 - - - -
24/09:30am 24.7 NE 1 4 1008.0 - 0.0 - Partly cloudy 10 - - - -
24/09:00am 24.1 E 1 3 1008.1 - 0.0 - Cloudy 10 - - - -
24/08:30am 23.7 E 3 4 1007.9 - 0.0 - Cloudy 10 - - - -
24/08:00am 23.0 ENE 3 5 1007.7 - 0.0 - Partly cloudy 10 - - - -
24/07:30am 22.7 ESE 4 6 1007.7 - 0.0 - Partly cloudy 10 - - - -
24/07:00am 22.7 E 5 7 1007.5 - 0.0 - Cloudy 10 - - - -
24/06:30am 22.3 CALM 0 0 1007.4 - 0.0 - Cloudy 10 - - - -
24/06:00am 21.8 WSW 3 5 1007.4 - 0.0 - Cloudy 10 - - - -
24/05:30am 21.1 WSW 4 5 1007.1 - 0.0 - Cloudy 10 - - - -
24/05:29am 21.1 WSW 4 5 1007.1 - 0.0 - Cloudy 10 - - - -
24/05:00am 20.5 WSW 4 5 1006.7 - 0.0 - Cloudy 10 - - - -
24/04:30am 20.5 WSW 3 4 1006.5 - 0.0 - Partly cloudy 10 - - - -
24/04:00am 20.6 WSW 4 5 1006.4 - 0.0 - Partly cloudy 10 - - - -
24/03:30am 20.6 W 5 6 1006.6 - 0.0 - - 10 - - - -
24/03:00am 21.1 CALM 0 0 1006.5 - 0.0 - - 10 - - - -
24/02:30am 21.2 CALM 0 0 1006.7 - 0.0 - - 10 - - - -
24/02:00am 21.2 CALM 0 0 1006.8 - 0.0 - - 10 - - - -
24/01:30am 21.2 W 4 5 1007.0 - 0.0 - - 10 - - - -
24/01:00am 21.6 W 2 5 1006.9 - 0.0 - - 10 - - - -
24/12:30am 21.8 CALM 0 0 1006.9 - 0.0 - - 10 - - - -
24/12:00am 22.3 NW 4 4 1007.0 - 0.0 - - 10 - - - -
 
Date/Time
EDT
Temp

°C
Wind Pressure Rain
since 9am
mm
Weather Cloud Vis
km
Sea
Height
m
Swell
Dir
 
Speed
knots
Gust
knots
hPa Trend Height
m
Period
s
Dir
23/11:30pm 22.5 W 1 3 1007.2 - 0.0 - - 10 - - - -
23/11:00pm 22.8 W 6 7 1007.2 - 0.0 - - 10 - - - -
23/10:30pm 23.7 WNW 3 5 1007.2 - 0.0 - - 10 - - - -
23/10:00pm 24.8 NNE 5 7 1007.1 - 0.0 - - 10 - - - -
23/09:30pm 25.2 NNE 1 4 1007.0 - 0.0 - - 10 - - - -
23/09:00pm 25.3 NE 7 9 1006.8 - 0.0 - Partly cloudy 10 - - - -
23/08:30pm 25.4 NE 7 9 1006.5 - 0.0 - - 10 - - - -
23/08:00pm 25.8 ENE 6 8 1006.4 - 0.0 - - 10 - - - -
23/07:30pm 26.4 NE 10 12 1005.9 - 0.0 - - 10 - - - -
23/07:00pm 26.9 NE 10 13 1005.7 - 0.0 - - 10 - - - -
23/06:30pm 27.3 NNE 9 11 1005.4 - 0.0 - - 10 - - - -
23/06:00pm 26.5 NNE 12 18 1005.4 - 0.0 - Mostly cloudy 10 - - - -
23/05:30pm 27.2 NE 12 16 1005.7 - 0.0 - - 10 - - - -
23/05:00pm 27.0 NE 13 18 1005.7 - 0.0 - - 10 - - - -
23/04:30pm 26.6 NE 11 15 1005.9 - 0.0 - Partly cloudy 10 - - - -
23/04:00pm 27.1 ENE 13 16 1006.1 - 0.0 - - 10 - - - -
23/03:30pm 28.2 NE 13 18 1006.5 - 0.0 - - 10 - - - -
23/03:00pm 28.2 NE 13 17 1006.8 - 0.0 - - 10 - - - -
23/02:30pm 27.8 NE 15 19 1007.0 - 0.0 - - 10 - - - -
23/02:00pm 27.3 NE 13 17 1007.4 - 0.0 - - 10 - - - -
23/01:30pm 27.4 NE 15 18 1007.7 - 0.0 - - 10 - - - -
23/01:00pm 27.4 NE 15 19 1008.1 - 0.0 - - 10 - - - -
23/12:30pm 26.9 NE 13 17 1008.2 - 0.0 - - 10 - - - -
23/12:00pm 26.7 NE 14 17 1008.5 - 0.0 - - 10 - - - -
23/11:30am 27.0 NE 12 16 1008.7 - 0.0 - - 10 - - - -

Other Formats:

Comma delimited format used in spreadsheet applications
http://www.bom.gov.au/fwo/IDN60701/IDN60701.95748.axf

JavaScript Object Notation format (JSON) in row-major order
http://www.bom.gov.au/fwo/IDN60701/IDN60701.95748.json